Time;durP1;ratioP1;P1;durP2;ratioP2;P2;SDS_P1;SDS_P2;PMS_P1;PMS_P2;Temp;Humidity;BMP_temperature;BMP_pressure;BME280_temperature;BME280_humidity;BME280_pressure;Samples;Min_cycle;Max_cycle;Signal;HPM_P1;HPM_P2
2022/10/11 00:00:04;;;;;;;22.97;9.90;;;8.30;99.90;;;;;;5114584;28;20200;-91
2022/10/11 00:02:31;;;;;;;15.53;8.93;;;8.30;99.90;;;;;;5114204;28;20204;-93
2022/10/11 00:04:57;;;;;;;17.50;9.40;;;8.20;99.90;;;;;;5114429;28;20200;-88
2022/10/11 00:07:24;;;;;;;16.60;9.37;;;8.20;99.90;;;;;;5114534;28;20192;-90
2022/10/11 00:09:52;;;;;;;17.63;9.10;;;8.00;99.90;;;;;;5114564;28;20197;-92
2022/10/11 00:12:19;;;;;;;18.37;9.60;;;7.90;99.90;;;;;;5114307;28;20201;-88
2022/10/11 00:14:46;;;;;;;21.13;9.70;;;7.90;99.90;;;;;;5114196;28;20678;-91
2022/10/11 00:17:13;;;;;;;18.17;9.20;;;7.80;99.90;;;;;;5114093;28;20607;-92
2022/10/11 00:19:41;;;;;;;14.67;9.17;;;7.80;99.90;;;;;;5113985;28;20204;-86
2022/10/11 00:22:26;;;;;;;16.67;9.27;;;7.80;99.90;;;;;;5114850;28;20200;-94
2022/10/11 00:24:58;;;;;;;18.73;9.60;;;7.80;99.90;;;;;;5114780;28;20189;-92
2022/10/11 00:27:28;;;;;;;16.97;10.00;;;7.80;99.90;;;;;;5115229;28;20208;-93
2022/10/11 00:29:56;;;;;;;22.30;9.30;;;7.80;99.90;;;;;;5114945;28;20199;-95
2022/10/11 00:32:29;;;;;;;18.23;8.73;;;7.80;99.90;;;;;;5114922;28;20184;-94
2022/10/11 00:35:03;;;;;;;19.27;8.07;;;7.80;99.90;;;;;;5114845;28;20192;-93
2022/10/11 00:37:38;;;;;;;16.80;8.83;;;7.80;99.90;;;;;;5114662;28;20303;-88
2022/10/11 00:40:13;;;;;;;14.60;8.47;;;7.70;99.90;;;;;;5113959;28;20211;-90
2022/10/11 00:42:43;;;;;;;17.90;8.37;;;7.80;99.90;;;;;;5113592;28;20188;-86
2022/10/11 00:45:52;;;;;;;16.03;8.57;;;7.80;99.90;;;;;;5113960;28;20201;-90
2022/10/11 00:48:22;;;;;;;11.97;8.40;;;7.70;99.90;;;;;;5113615;28;20201;-86
2022/10/11 00:50:50;;;;;;;16.53;8.17;;;7.70;99.90;;;;;;5113448;28;20220;-90
2022/10/11 00:53:17;;;;;;;14.50;8.83;;;7.70;99.90;;;;;;5113826;28;20192;-85
2022/10/11 00:55:51;;;;;;;12.33;9.17;;;7.60;99.90;;;;;;5113621;28;20192;-93
2022/10/11 00:58:20;;;;;;;16.13;8.37;;;7.60;99.90;;;;;;5114598;28;20217;-89
2022/10/11 01:00:47;;;;;;;19.50;8.50;;;7.50;99.90;;;;;;5117769;28;20204;-86
2022/10/11 01:03:14;;;;;;;14.80;8.73;;;7.50;99.90;;;;;;5117770;28;20207;-91
2022/10/11 01:05:41;;;;;;;15.40;8.47;;;7.50;99.90;;;;;;5117752;28;20199;-91
2022/10/11 01:08:08;;;;;;;15.90;9.07;;;7.40;99.90;;;;;;5117289;28;20658;-93
2022/10/11 01:10:35;;;;;;;15.00;8.23;;;7.40;99.90;;;;;;5117340;28;20193;-84
2022/10/11 01:13:15;;;;;;;16.37;8.47;;;7.40;99.90;;;;;;5117659;28;20196;-85
2022/10/11 01:15:49;;;;;;;17.07;8.27;;;7.40;99.90;;;;;;5117559;28;20560;-84
2022/10/11 01:18:21;;;;;;;20.27;8.57;;;7.30;99.90;;;;;;5117170;28;20220;-91
2022/10/11 01:21:01;;;;;;;12.10;8.73;;;7.20;99.90;;;;;;5117210;28;20212;-93
2022/10/11 01:24:07;;;;;;;15.67;8.13;;;7.30;99.90;;;;;;5118166;28;20199;-94
2022/10/11 01:27:02;;;;;;;19.17;8.03;;;7.30;99.90;;;;;;5117848;28;20196;-92
2022/10/11 01:29:50;;;;;;;15.67;8.30;;;7.30;99.90;;;;;;5118000;28;20199;-94
2022/10/11 01:32:28;;;;;;;18.83;8.88;;;7.40;99.90;;;;;;5117787;28;20451;-93
2022/10/11 01:35:07;;;;;;;13.50;7.90;;;7.40;99.90;;;;;;5117912;28;20185;-94
2022/10/11 01:37:37;;;;;;;15.90;8.67;;;7.30;99.90;;;;;;5116459;28;20220;-89
2022/10/11 01:40:09;;;;;;;16.73;8.67;;;7.30;99.90;;;;;;5116823;28;20636;-93
2022/10/11 01:42:38;;;;;;;14.40;8.10;;;7.20;99.90;;;;;;5116960;28;20193;-93
2022/10/11 01:45:07;;;;;;;15.53;8.03;;;7.20;99.90;;;;;;5116281;28;20205;-88
2022/10/11 01:47:35;;;;;;;14.17;7.87;;;7.20;99.90;;;;;;5116749;28;20200;-88
2022/10/11 01:50:03;;;;;;;13.33;7.23;;;7.20;99.90;;;;;;5116406;28;20391;-85
2022/10/11 01:52:39;;;;;;;18.70;8.53;;;7.20;99.90;;;;;;5116694;28;20585;-94
2022/10/11 01:55:40;;;;;;;13.83;7.80;;;7.00;99.90;;;;;;5117653;28;20188;-94
2022/10/11 01:58:14;;;;;;;12.53;7.23;;;6.80;99.90;;;;;;5117349;28;20563;-96
2022/10/11 02:00:56;;;;;;;15.43;7.20;;;6.90;99.90;;;;;;5117281;28;20196;-93
2022/10/11 02:03:39;;;;;;;16.65;9.80;;;6.80;99.90;;;;;;5116333;28;20424;-96
2022/10/11 02:06:11;;;;;;;16.17;8.70;;;7.00;99.90;;;;;;5117262;28;20207;-89
2022/10/11 02:08:45;;;;;;;15.93;8.10;;;7.10;99.90;;;;;;5116020;28;20231;-88
2022/10/11 02:11:20;;;;;;;10.87;7.97;;;7.20;99.90;;;;;;5115554;28;20188;-87
2022/10/11 02:13:53;;;;;;;9.77;7.67;;;7.20;99.90;;;;;;5115911;28;20188;-87
2022/10/11 02:16:25;;;;;;;16.00;7.93;;;7.10;99.90;;;;;;5115844;28;20640;-86
2022/10/11 02:18:56;;;;;;;14.60;9.10;;;7.00;99.90;;;;;;5115710;28;20216;-86
2022/10/11 02:21:29;;;;;;;13.53;8.10;;;7.00;99.90;;;;;;5115657;28;20216;-95
2022/10/11 02:24:06;;;;;;;16.13;8.33;;;7.10;99.90;;;;;;5116851;28;20208;-95
2022/10/11 02:26:42;;;;;;;13.47;7.77;;;7.10;99.90;;;;;;5117003;28;20195;-95
2022/10/11 02:29:18;;;;;;;15.83;8.30;;;6.90;99.90;;;;;;5116911;28;20195;-95
2022/10/11 02:31:51;;;;;;;13.43;7.70;;;6.90;99.90;;;;;;5116579;28;20195;-95
2022/10/11 02:34:25;;;;;;;15.73;8.10;;;6.60;99.90;;;;;;5116363;28;20200;-95
2022/10/11 02:36:57;;;;;;;11.13;7.47;;;6.60;99.90;;;;;;5116011;28;20189;-85
2022/10/11 02:39:29;;;;;;;13.50;7.47;;;6.60;99.90;;;;;;5115397;28;20228;-86
2022/10/11 02:42:02;;;;;;;11.17;7.47;;;6.60;99.90;;;;;;5115373;28;20200;-86
2022/10/11 02:44:35;;;;;;;14.13;7.77;;;6.70;99.90;;;;;;5115218;28;20209;-86
2022/10/11 02:47:03;;;;;;;11.93;7.27;;;6.60;99.90;;;;;;5114858;28;20208;-86
2022/10/11 02:49:31;;;;;;;11.00;7.20;;;6.70;99.90;;;;;;5115076;28;20200;-85
2022/10/11 02:52:06;;;;;;;14.50;7.40;;;6.70;99.90;;;;;;5114955;28;20232;-94
2022/10/11 02:54:38;;;;;;;9.80;7.43;;;6.70;99.90;;;;;;5115989;27;20643;-94
2022/10/11 02:57:05;;;;;;;14.50;7.33;;;6.70;99.90;;;;;;5116579;28;20196;-95
2022/10/11 02:59:38;;;;;;;9.40;7.03;;;6.70;99.90;;;;;;5116320;28;20223;-94
2022/10/11 03:02:05;;;;;;;14.17;7.93;;;6.70;99.90;;;;;;5115540;28;20185;-94
2022/10/11 03:04:39;;;;;;;14.70;7.50;;;6.70;99.90;;;;;;5115998;28;20199;-95
2022/10/11 03:07:06;;;;;;;12.63;8.53;;;6.70;99.90;;;;;;5115511;28;20200;-85
2022/10/11 03:09:33;;;;;;;16.60;7.97;;;6.60;99.90;;;;;;5114727;28;20193;-85
2022/10/11 03:12:00;;;;;;;10.03;6.97;;;6.70;99.90;;;;;;5114824;28;20196;-86
2022/10/11 03:14:27;;;;;;;12.57;7.43;;;6.80;99.90;;;;;;5114224;28;20200;-86
2022/10/11 03:16:55;;;;;;;14.50;7.90;;;6.80;99.90;;;;;;5114414;28;20205;-87
2022/10/11 03:19:21;;;;;;;12.87;7.73;;;6.70;99.90;;;;;;5112881;28;20240;-85
2022/10/11 03:21:50;;;;;;;11.53;7.30;;;6.70;99.90;;;;;;5108482;28;20284;-95
2022/10/11 03:24:19;;;;;;;9.60;7.33;;;6.70;99.90;;;;;;5115498;28;20201;-94
2022/10/11 03:26:52;;;;;;;13.27;7.47;;;6.70;99.90;;;;;;5115181;28;20192;-93
2022/10/11 03:29:21;;;;;;;14.20;7.80;;;6.70;99.90;;;;;;5115703;28;20208;-95
2022/10/11 03:31:51;;;;;;;21.90;14.23;;;6.60;99.90;;;;;;5115588;28;20193;-94
2022/10/11 03:34:23;;;;;;;17.83;9.63;;;6.50;99.90;;;;;;5115333;28;20189;-94
2022/10/11 03:36:53;;;;;;;18.30;9.80;;;6.60;99.90;;;;;;5115143;28;20655;-87
2022/10/11 03:39:20;;;;;;;26.30;16.77;;;6.60;99.90;;;;;;5114340;28;20220;-86
2022/10/11 03:41:46;;;;;;;22.67;14.60;;;6.60;99.90;;;;;;5114497;28;20199;-87
2022/10/11 03:44:13;;;;;;;20.23;11.67;;;6.60;99.90;;;;;;5114209;28;20204;-86
2022/10/11 03:46:40;;;;;;;15.37;11.03;;;6.50;99.90;;;;;;5113986;28;20703;-86
2022/10/11 03:49:08;;;;;;;17.93;12.37;;;6.50;99.90;;;;;;5114136;28;20189;-86
2022/10/11 03:51:35;;;;;;;17.27;11.80;;;6.50;99.90;;;;;;5114013;28;20216;-87
2022/10/11 03:54:09;;;;;;;18.23;12.20;;;6.60;99.90;;;;;;5114908;28;20192;-93
2022/10/11 03:56:41;;;;;;;19.87;14.60;;;6.50;99.90;;;;;;5115032;28;20184;-93
2022/10/11 03:59:14;;;;;;;17.37;12.50;;;6.50;99.90;;;;;;5115013;28;20587;-93
2022/10/11 04:01:42;;;;;;;12.40;9.97;;;6.50;99.90;;;;;;5115547;28;20200;-92
2022/10/11 04:04:10;;;;;;;12.97;8.97;;;6.50;99.90;;;;;;5113537;28;20207;-90
2022/10/11 04:06:36;;;;;;;15.47;8.70;;;6.50;99.90;;;;;;5114041;28;20204;-88
2022/10/11 04:09:04;;;;;;;18.60;9.90;;;6.40;99.90;;;;;;5114186;28;20202;-90
2022/10/11 04:11:32;;;;;;;17.27;9.07;;;6.40;99.90;;;;;;5113890;28;20205;-86
2022/10/11 04:13:59;;;;;;;17.30;9.13;;;6.20;99.90;;;;;;5113542;28;20676;-86
2022/10/11 04:16:26;;;;;;;16.60;8.17;;;6.30;99.90;;;;;;5113781;28;20196;-85
2022/10/11 04:18:53;;;;;;;15.53;8.47;;;6.30;99.90;;;;;;5113460;28;20235;-88
2022/10/11 04:21:20;;;;;;;14.20;8.43;;;6.30;99.90;;;;;;5113793;28;20196;-87
2022/10/11 04:23:46;;;;;;;11.77;7.90;;;6.30;99.90;;;;;;5113979;28;20203;-87
2022/10/11 04:26:19;;;;;;;14.63;8.20;;;6.30;99.90;;;;;;5113821;28;20196;-91
2022/10/11 04:28:47;;;;;;;12.90;8.43;;;6.30;99.90;;;;;;5114641;28;20204;-88
2022/10/11 04:31:14;;;;;;;17.13;9.40;;;6.30;99.90;;;;;;5113568;28;20211;-86
2022/10/11 04:33:41;;;;;;;16.47;9.47;;;6.30;99.90;;;;;;5115050;28;20200;-87
2022/10/11 04:36:08;;;;;;;14.83;10.57;;;6.30;99.90;;;;;;5117371;28;20197;-84
2022/10/11 04:38:35;;;;;;;21.50;13.43;;;6.30;99.90;;;;;;5118121;28;20219;-87
2022/10/11 04:41:11;;;;;;;18.23;10.40;;;6.30;99.90;;;;;;5117709;28;20200;-89
2022/10/11 04:43:38;;;;;;;15.43;10.57;;;6.30;99.90;;;;;;5117549;28;20562;-86
2022/10/11 04:46:07;;;;;;;16.47;10.07;;;6.20;99.90;;;;;;5117641;28;20212;-87
2022/10/11 04:48:34;;;;;;;14.33;7.93;;;6.20;99.90;;;;;;5117437;28;20575;-87
2022/10/11 04:51:01;;;;;;;18.50;9.27;;;6.20;99.90;;;;;;5117641;28;20228;-89
2022/10/11 04:53:28;;;;;;;15.83;9.07;;;6.10;99.90;;;;;;5117912;28;20201;-86
2022/10/11 04:56:00;;;;;;;19.60;9.10;;;6.00;99.90;;;;;;5117341;28;20668;-87
2022/10/11 04:58:29;;;;;;;15.37;10.80;;;6.10;99.90;;;;;;5117306;28;20193;-86
2022/10/11 05:00:56;;;;;;;18.47;11.50;;;6.20;99.90;;;;;;5116200;28;20209;-86
2022/10/11 05:03:25;;;;;;;18.53;11.40;;;6.10;99.90;;;;;;5117009;28;20200;-85
2022/10/11 05:05:52;;;;;;;14.47;9.67;;;6.20;99.90;;;;;;5116552;28;20200;-86
2022/10/11 05:08:21;;;;;;;16.63;9.20;;;6.20;99.90;;;;;;5116190;28;20200;-88
2022/10/11 05:10:55;;;;;;;14.57;8.57;;;6.20;99.90;;;;;;5117449;28;20192;-89
2022/10/11 05:13:24;;;;;;;15.77;9.30;;;6.30;99.90;;;;;;5117349;28;20204;-87
2022/10/11 05:15:55;;;;;;;18.87;11.30;;;6.20;99.90;;;;;;5117371;28;20261;-91
2022/10/11 05:18:26;;;;;;;12.53;9.93;;;6.20;99.90;;;;;;5118045;28;20219;-94
2022/10/11 05:21:01;;;;;;;608.33;102.50;;;6.20;99.90;;;;;;5117862;28;20200;-93
2022/10/11 05:23:32;;;;;;;35.93;14.67;;;6.40;99.90;;;;;;5117828;28;20199;-93
2022/10/11 05:26:04;;;;;;;18.40;10.83;;;6.30;99.90;;;;;;5117420;28;20651;-91
2022/10/11 05:28:36;;;;;;;16.97;10.33;;;6.30;99.90;;;;;;5117729;28;20209;-93
2022/10/11 05:31:06;;;;;;;18.00;9.27;;;6.30;99.90;;;;;;5117516;28;20211;-93
2022/10/11 05:33:35;;;;;;;48.80;15.70;;;6.30;99.90;;;;;;5118122;28;20188;-92
2022/10/11 05:36:02;;;;;;;22.50;12.60;;;6.20;99.90;;;;;;5117687;28;20192;-93
2022/10/11 05:38:29;;;;;;;21.73;13.43;;;6.20;99.90;;;;;;5117047;28;20197;-91
2022/10/11 05:41:00;;;;;;;25.73;14.63;;;6.10;99.90;;;;;;5117076;28;20207;-92
2022/10/11 05:43:26;;;;;;;23.30;10.20;;;6.10;99.90;;;;;;5117040;28;20192;-91
2022/10/11 05:45:54;;;;;;;22.63;11.80;;;6.10;99.90;;;;;;5115961;28;20212;-90
2022/10/11 05:48:21;;;;;;;20.47;12.53;;;6.10;99.90;;;;;;5117271;28;20213;-90
2022/10/11 05:50:49;;;;;;;27.30;11.87;;;6.00;99.90;;;;;;5116623;28;20695;-93
2022/10/11 05:53:17;;;;;;;17.87;10.27;;;6.00;99.90;;;;;;5116746;28;20204;-91
2022/10/11 05:55:44;;;;;;;17.60;10.47;;;6.00;99.90;;;;;;5116607;28;20214;-93
2022/10/11 05:58:14;;;;;;;19.27;10.53;;;6.00;99.90;;;;;;5116010;28;20203;-90
2022/10/11 06:00:41;;;;;;;21.50;9.70;;;6.00;99.90;;;;;;5115227;28;20444;-89
2022/10/11 06:03:12;;;;;;;19.13;9.37;;;6.00;99.90;;;;;;5116445;28;20196;-90
2022/10/11 06:05:39;;;;;;;16.20;8.70;;;6.10;99.90;;;;;;5116007;28;20191;-87
2022/10/11 06:08:09;;;;;;;17.87;8.53;;;6.10;99.90;;;;;;5114629;28;20200;-89
2022/10/11 06:10:37;;;;;;;18.77;8.60;;;6.20;99.90;;;;;;5116269;28;20659;-89
2022/10/11 06:13:04;;;;;;;17.73;8.53;;;6.20;99.90;;;;;;5114990;28;20200;-90
2022/10/11 06:15:30;;;;;;;15.00;8.13;;;6.20;99.90;;;;;;5115621;28;20208;-90
2022/10/11 06:17:58;;;;;;;19.63;10.50;;;6.10;99.90;;;;;;5115582;28;20787;-90
2022/10/11 06:20:24;;;;;;;18.27;9.90;;;6.10;99.90;;;;;;5115991;28;20220;-88
2022/10/11 06:22:51;;;;;;;13.97;9.17;;;6.00;99.90;;;;;;5115808;28;20212;-89
2022/10/11 06:25:20;;;;;;;26.07;10.73;;;6.00;99.90;;;;;;5114695;28;20205;-89
2022/10/11 06:27:46;;;;;;;16.53;10.37;;;6.00;99.90;;;;;;5115426;28;20201;-90
2022/10/11 06:30:14;;;;;;;24.83;12.00;;;5.90;99.90;;;;;;5114544;28;20219;-92
2022/10/11 06:32:42;;;;;;;17.90;11.03;;;6.00;99.90;;;;;;5115420;28;20205;-90
2022/10/11 06:35:09;;;;;;;17.97;9.30;;;6.00;99.90;;;;;;5114500;28;20200;-89
2022/10/11 06:37:36;;;;;;;15.73;8.73;;;6.00;99.90;;;;;;5115725;28;20636;-91
2022/10/11 06:40:03;;;;;;;19.40;8.83;;;6.00;99.90;;;;;;5115442;28;20236;-89
2022/10/11 06:42:31;;;;;;;15.03;8.57;;;6.10;99.90;;;;;;5115183;28;20196;-91
2022/10/11 06:44:58;;;;;;;17.80;9.17;;;6.20;99.90;;;;;;5115794;28;20666;-91
2022/10/11 06:47:25;;;;;;;18.37;9.33;;;6.40;99.90;;;;;;5115490;28;20212;-91
2022/10/11 06:49:51;;;;;;;20.57;9.87;;;6.50;99.90;;;;;;5115489;28;20587;-89
2022/10/11 06:52:18;;;;;;;21.00;8.87;;;6.50;99.90;;;;;;5115389;28;20227;-90
2022/10/11 06:54:45;;;;;;;28.47;9.63;;;6.60;99.90;;;;;;5114762;28;20196;-88
2022/10/11 06:57:12;;;;;;;17.70;9.27;;;6.70;99.90;;;;;;5114608;28;20201;-91
2022/10/11 06:59:41;;;;;;;20.63;9.43;;;6.60;99.90;;;;;;5114590;28;20227;-91
2022/10/11 07:02:09;;;;;;;18.13;9.87;;;6.80;99.90;;;;;;5115183;28;20208;-93
2022/10/11 07:04:38;;;;;;;24.17;12.27;;;6.90;99.90;;;;;;5114039;27;20440;-92
2022/10/11 07:07:05;;;;;;;18.13;10.50;;;7.20;99.90;;;;;;5115320;28;20219;-90
2022/10/11 07:09:34;;;;;;;20.37;10.00;;;7.30;99.90;;;;;;5114872;28;20207;-88
2022/10/11 07:12:00;;;;;;;18.53;10.40;;;7.50;99.90;;;;;;5113188;28;20204;-87
2022/10/11 07:14:27;;;;;;;17.13;9.30;;;7.50;99.90;;;;;;5114917;28;20203;-93
2022/10/11 07:16:56;;;;;;;17.40;8.97;;;7.50;99.90;;;;;;5114930;28;20694;-89
2022/10/11 07:19:23;;;;;;;19.43;10.43;;;7.60;99.90;;;;;;5114282;28;20698;-88
2022/10/11 07:21:50;;;;;;;21.17;11.13;;;7.60;99.90;;;;;;5114692;28;20191;-89
2022/10/11 07:24:17;;;;;;;19.53;9.67;;;7.60;99.90;;;;;;5114146;28;20257;-90
2022/10/11 07:26:44;;;;;;;23.30;11.90;;;7.80;99.90;;;;;;5114145;28;20196;-91
2022/10/11 07:29:12;;;;;;;31.03;14.33;;;7.80;99.90;;;;;;5114794;28;20201;-91
2022/10/11 07:31:41;;;;;;;28.50;13.73;;;8.00;99.90;;;;;;5113758;28;20212;-90
2022/10/11 07:34:10;;;;;;;35.47;15.75;;;8.00;99.90;;;;;;5113136;28;20424;-90
2022/10/11 07:36:37;;;;;;;25.57;13.73;;;8.10;99.90;;;;;;5113983;28;20200;-91
2022/10/11 07:39:04;;;;;;;31.23;14.03;;;8.10;99.90;;;;;;5114908;28;20189;-91
2022/10/11 07:41:31;;;;;;;29.47;13.77;;;8.20;99.90;;;;;;5113885;28;20200;-90
2022/10/11 07:43:58;;;;;;;34.37;14.80;;;8.20;99.90;;;;;;5113237;28;20216;-90
2022/10/11 07:46:25;;;;;;;26.30;14.63;;;8.30;99.90;;;;;;5114040;28;20216;-89
2022/10/11 07:48:52;;;;;;;29.60;13.87;;;8.40;99.90;;;;;;5114487;28;20204;-88
2022/10/11 07:51:23;;;;;;;25.50;12.93;;;8.60;99.90;;;;;;5114289;28;20221;-88
2022/10/11 07:53:51;;;;;;;24.70;12.67;;;8.60;99.90;;;;;;5114381;28;20252;-90
2022/10/11 07:56:19;;;;;;;32.93;13.03;;;8.70;99.90;;;;;;5114302;28;20269;-90
2022/10/11 07:58:50;;;;;;;31.93;12.77;;;8.70;99.90;;;;;;5114984;28;20200;-89
2022/10/11 08:01:18;;;;;;;29.17;12.23;;;8.90;99.90;;;;;;5114218;28;20224;-88
2022/10/11 08:03:44;;;;;;;24.83;12.32;;;9.00;99.90;;;;;;5114220;28;20432;-88
2022/10/11 08:06:13;;;;;;;29.03;11.97;;;9.00;99.90;;;;;;5113087;28;20204;-88
2022/10/11 08:08:41;;;;;;;21.67;11.10;;;9.10;99.90;;;;;;5113244;28;20674;-88
2022/10/11 08:11:08;;;;;;;25.73;11.17;;;9.30;99.90;;;;;;5113920;27;20576;-87
2022/10/11 08:13:35;;;;;;;19.73;10.97;;;9.40;99.90;;;;;;5113675;28;20203;-87
2022/10/11 08:16:09;;;;;;;20.83;10.47;;;9.40;99.90;;;;;;5113932;28;20204;-89
2022/10/11 08:18:36;;;;;;;18.07;10.07;;;9.50;99.90;;;;;;5113832;28;20196;-87
2022/10/11 08:21:06;;;;;;;15.63;9.67;;;9.60;99.90;;;;;;5113587;28;20703;-87
2022/10/11 08:23:33;;;;;;;22.70;10.90;;;9.80;99.90;;;;;;5113903;28;20211;-88
2022/10/11 08:26:01;;;;;;;21.93;9.90;;;9.90;99.90;;;;;;5113767;28;20205;-87
2022/10/11 08:28:28;;;;;;;20.03;9.70;;;10.00;99.90;;;;;;5113942;28;20205;-88
2022/10/11 08:30:55;;;;;;;19.37;9.20;;;10.00;99.90;;;;;;5113696;28;20208;-86
2022/10/11 08:33:24;;;;;;;19.73;10.27;;;10.20;99.90;;;;;;5113682;28;20208;-87
2022/10/11 08:35:51;;;;;;;23.37;11.43;;;10.50;99.90;;;;;;5113982;28;20296;-86
2022/10/11 08:38:19;;;;;;;24.37;10.43;;;10.40;99.90;;;;;;5113434;28;20242;-86
2022/10/11 08:40:47;;;;;;;21.20;10.33;;;10.50;99.90;;;;;;5113399;28;20264;-87
2022/10/11 08:43:29;;;;;;;21.40;9.07;;;10.70;99.90;;;;;;5113219;28;20202;-85
2022/10/11 08:45:59;;;;;;;19.90;8.60;;;11.00;99.90;;;;;;5113412;28;20220;-86
2022/10/11 08:48:34;;;;;;;26.23;10.60;;;11.10;99.90;;;;;;5113527;28;20196;-85
2022/10/11 08:51:03;;;;;;;25.03;9.57;;;11.10;99.90;;;;;;5113078;28;20221;-84
2022/10/11 08:53:40;;;;;;;23.80;7.23;;;11.30;99.90;;;;;;5113563;28;20202;-84
2022/10/11 08:56:11;;;;;;;13.80;6.20;;;11.50;99.90;;;;;;5113784;28;20653;-84
2022/10/11 08:58:46;;;;;;;16.27;5.87;;;11.60;99.90;;;;;;5114064;28;20235;-87
2022/10/11 09:01:17;;;;;;;16.50;6.30;;;11.70;99.90;;;;;;5114148;28;20234;-86
2022/10/11 09:03:47;;;;;;;19.00;6.67;;;11.90;99.90;;;;;;5113423;28;20191;-85
2022/10/11 09:06:22;;;;;;;17.50;6.03;;;11.90;99.90;;;;;;5113657;28;20210;-85
2022/10/11 09:09:00;;;;;;;13.03;4.93;;;12.10;99.90;;;;;;5113361;28;20602;-82
2022/10/11 09:11:38;;;;;;;17.90;5.53;;;12.20;99.90;;;;;;5114748;28;20677;-85
2022/10/11 09:14:28;;;;;;;11.83;4.50;;;12.10;99.90;;;;;;5114850;28;20191;-86
2022/10/11 09:17:06;;;;;;;16.87;5.20;;;12.20;99.90;;;;;;5113808;28;20206;-84
2022/10/11 09:19:54;;;;;;;12.03;5.43;;;12.50;99.90;;;;;;5115196;28;20199;-81
2022/10/11 09:22:28;;;;;;;23.70;6.40;;;12.60;99.90;;;;;;5118683;28;20214;-84
2022/10/11 09:25:09;;;;;;;11.30;5.93;;;12.60;99.90;;;;;;5116906;28;20207;-81
2022/10/11 09:27:43;;;;;;;18.87;6.53;;;12.70;99.90;;;;;;5118314;28;20191;-87
2022/10/11 09:30:15;;;;;;;18.70;6.73;;;13.00;99.90;;;;;;5117514;28;20210;-88
2022/10/11 09:32:45;;;;;;;20.40;6.30;;;13.20;99.90;;;;;;5116752;28;20208;-85
2022/10/11 09:35:16;;;;;;;19.27;6.50;;;13.00;99.90;;;;;;5116695;28;20683;-82
2022/10/11 09:37:51;;;;;;;21.80;6.80;;;12.90;99.90;;;;;;5116566;28;20193;-82
2022/10/11 09:40:38;;;;;;;18.27;6.13;;;13.10;99.90;;;;;;5116844;28;20239;-82
2022/10/11 09:43:05;;;;;;;14.20;6.47;;;13.30;99.90;;;;;;5116269;28;20205;-81
2022/10/11 09:45:33;;;;;;;14.80;6.27;;;13.50;99.90;;;;;;5116545;28;20212;-82
2022/10/11 09:48:04;;;;;;;14.20;5.37;;;13.70;99.90;;;;;;5116248;28;20211;-82
2022/10/11 09:50:32;;;;;;;13.87;5.33;;;13.70;99.90;;;;;;5115886;28;20279;-84
2022/10/11 09:53:03;;;;;;;13.60;4.73;;;13.70;99.90;;;;;;5116506;28;20193;-82
2022/10/11 09:55:33;;;;;;;13.33;4.90;;;13.80;99.90;;;;;;5116377;28;20189;-86
2022/10/11 09:58:01;;;;;;;12.87;3.90;;;13.70;99.90;;;;;;5116828;28;20220;-86
2022/10/11 10:00:31;;;;;;;9.60;3.43;;;13.90;99.90;;;;;;5121168;28;20208;-85
2022/10/11 10:03:00;;;;;;;12.47;3.03;;;14.10;99.90;;;;;;5122367;28;20245;-85
2022/10/11 10:05:28;;;;;;;11.32;3.45;;;14.10;99.90;;;;;;5121199;28;20427;-86
2022/10/11 10:08:06;;;;;;;12.27;3.37;;;14.20;99.90;;;;;;5118710;28;20215;-83
2022/10/11 10:10:38;;;;;;;12.80;3.27;;;14.10;99.90;;;;;;5116580;28;20197;-84
2022/10/11 10:13:15;;;;;;;11.50;3.03;;;14.30;99.90;;;;;;5116394;28;20212;-83
2022/10/11 10:15:47;;;;;;;13.93;3.37;;;14.40;99.90;;;;;;5117786;28;20197;-82
2022/10/11 10:18:22;;;;;;;16.37;3.30;;;14.50;99.90;;;;;;5115903;28;20250;-82
2022/10/11 10:20:52;;;;;;;7.73;2.70;;;14.70;99.90;;;;;;5115725;27;20258;-84
2022/10/11 10:23:23;;;;;;;7.77;2.50;;;14.70;99.90;;;;;;5121341;28;20194;-85
2022/10/11 10:25:51;;;;;;;8.97;2.67;;;14.80;99.90;;;;;;5118134;28;20209;-86
2022/10/11 10:28:22;;;;;;;8.03;2.87;;;14.70;99.90;;;;;;5121397;28;20677;-83
2022/10/11 10:30:54;;;;;;;10.63;3.30;;;14.60;99.90;;;;;;5120378;28;20217;-85
2022/10/11 10:33:24;;;;;;;7.93;2.63;;;14.70;99.90;;;;;;5125898;28;20201;-86
2022/10/11 10:35:55;;;;;;;8.93;2.60;;;14.80;99.90;;;;;;5126662;28;20197;-90
2022/10/11 10:38:27;;;;;;;11.00;3.00;;;14.90;99.90;;;;;;5128648;28;20197;-87
2022/10/11 10:40:57;;;;;;;8.10;2.63;;;15.00;99.90;;;;;;5124192;28;20219;-85
2022/10/11 10:43:27;;;;;;;16.57;3.23;;;14.90;99.90;;;;;;5124142;28;20190;-88
2022/10/11 10:46:29;;;;;;;5.30;2.40;;;15.00;99.90;;;;;;5111979;28;20296;-85
2022/10/11 10:49:11;;;;;;;9.43;1.90;;;14.90;99.90;;;;;;5113341;28;20201;-86
2022/10/11 10:51:47;;;;;;;9.13;2.17;;;14.80;99.90;;;;;;5115402;28;20688;-85
2022/10/11 10:54:24;;;;;;;8.67;2.57;;;14.80;99.90;;;;;;5115211;28;20607;-86
2022/10/11 10:56:55;;;;;;;12.40;2.80;;;14.90;99.90;;;;;;5115402;28;20661;-86
2022/10/11 10:59:44;;;;;;;8.73;2.43;;;15.10;99.90;;;;;;5114986;28;20191;-86
2022/10/11 11:02:16;;;;;;;10.47;3.30;;;15.30;99.90;;;;;;5111438;27;20697;-84
2022/10/11 11:04:51;;;;;;;7.23;2.90;;;15.50;99.90;;;;;;5112464;28;20673;-85
2022/10/11 11:07:30;;;;;;;8.77;2.73;;;15.60;99.90;;;;;;5111053;28;20194;-87
2022/10/11 11:10:03;;;;;;;10.33;2.90;;;15.20;99.90;;;;;;5115076;28;20614;-86
2022/10/11 11:12:42;;;;;;;9.10;2.50;;;15.50;99.90;;;;;;5115210;28;20208;-85
2022/10/11 11:15:14;;;;;;;8.33;2.63;;;15.80;99.90;;;;;;5114992;28;20214;-85
2022/10/11 11:17:52;;;;;;;10.57;3.17;;;16.10;99.90;;;;;;5114824;28;20211;-86
2022/10/11 11:20:48;;;;;;;6.23;2.33;;;16.20;99.90;;;;;;5114858;28;20208;-86
2022/10/11 11:23:22;;;;;;;7.60;2.13;;;16.00;99.90;;;;;;5113965;28;20208;-82
2022/10/11 11:25:57;;;;;;;8.83;2.10;;;16.20;99.90;;;;;;5114018;28;20640;-86
2022/10/11 11:28:49;;;;;;;7.00;1.87;;;15.80;99.90;;;;;;5114462;28;20211;-86
2022/10/11 11:31:30;;;;;;;13.13;2.77;;;15.90;99.90;;;;;;5114641;28;20203;-87
2022/10/11 11:34:07;;;;;;;7.00;2.37;;;15.60;99.90;;;;;;5114260;28;20240;-83
2022/10/11 11:36:41;;;;;;;7.30;2.10;;;15.70;99.90;;;;;;5114306;28;20215;-88
2022/10/11 11:39:16;;;;;;;11.17;2.53;;;15.50;99.90;;;;;;5114421;28;20211;-84
2022/10/11 11:41:49;;;;;;;8.83;2.20;;;15.60;99.90;;;;;;5113831;28;20728;-84
2022/10/11 11:44:21;;;;;;;8.47;2.17;;;15.70;99.90;;;;;;5112919;28;20207;-84
2022/10/11 11:46:53;;;;;;;10.63;2.73;;;15.50;99.90;;;;;;5113440;28;20222;-85
2022/10/11 11:49:25;;;;;;;7.80;2.20;;;15.80;99.90;;;;;;5113709;28;20214;-84
2022/10/11 11:51:55;;;;;;;10.57;2.50;;;15.80;99.90;;;;;;5113493;28;20250;-86
2022/10/11 11:54:30;;;;;;;10.40;2.40;;;15.80;99.90;;;;;;5113650;28;20211;-83
2022/10/11 11:57:03;;;;;;;11.47;2.50;;;16.00;99.90;;;;;;5113405;28;20208;-84
2022/10/11 11:59:36;;;;;;;13.87;2.10;;;16.20;99.90;;;;;;5115572;28;20208;-88
2022/10/11 12:02:24;;;;;;;7.77;1.80;;;16.40;99.90;;;;;;5121163;28;20236;-87
2022/10/11 12:04:51;;;;;;;8.27;1.80;;;16.40;99.90;;;;;;5119874;28;20204;-87
2022/10/11 12:07:22;;;;;;;6.23;2.23;;;16.10;99.90;;;;;;5120851;28;20211;-86
2022/10/11 12:09:54;;;;;;;8.80;2.17;;;16.20;99.90;;;;;;5124763;28;20200;-84
2022/10/11 12:12:30;;;;;;;9.27;2.53;;;16.10;99.90;;;;;;5126618;28;20204;-84
2022/10/11 12:15:26;;;;;;;7.30;1.93;;;16.10;99.90;;;;;;5099670;28;20208;-85
2022/10/11 12:18:14;;;;;;;7.67;2.10;;;16.10;99.90;;;;;;5099503;28;20201;-85
2022/10/11 12:20:42;;;;;;;4.63;1.77;;;15.90;99.90;;;;;;5099904;28;20197;-85
2022/10/11 12:23:40;;;;;;;9.33;2.40;;;15.90;99.90;;;;;;5095899;28;20207;-85
2022/10/11 12:26:40;;;;;;;6.53;1.90;;;16.00;99.90;;;;;;5092792;28;20208;-85
2022/10/11 12:29:47;;;;;;;6.93;1.60;;;15.90;99.90;;;;;;5094174;28;20204;-85
2022/10/11 12:32:50;;;;;;;7.10;1.93;;;15.70;99.90;;;;;;5033264;28;20217;-86
2022/10/11 12:35:47;;;;;;;10.05;2.60;;;15.60;99.90;;;;;;5032673;28;20482;-87
2022/10/11 12:38:17;;;;;;;9.23;1.90;;;15.90;99.90;;;;;;5089948;28;20218;-81
2022/10/11 12:40:49;;;;;;;8.10;1.77;;;15.90;99.90;;;;;;5094391;28;20645;-86
2022/10/11 12:43:34;;;;;;;8.77;2.10;;;16.00;99.90;;;;;;5094271;28;20567;-87
2022/10/11 12:46:38;;;;;;;7.07;1.70;;;16.30;99.90;;;;;;5102979;28;20244;-88
2022/10/11 12:49:20;;;;;;;8.00;1.83;;;16.40;99.90;;;;;;5111897;28;20613;-89
2022/10/11 12:51:58;;;;;;;7.17;1.73;;;16.50;99.90;;;;;;5094025;28;20221;-87
2022/10/11 12:55:15;;;;;;;7.00;1.77;;;16.50;99.90;;;;;;5095048;28;20711;-87
2022/10/11 12:58:08;;;;;;;6.53;1.60;;;16.30;99.90;;;;;;5022758;28;20207;-87
2022/10/11 13:00:44;;;;;;;7.00;2.03;;;16.40;99.90;;;;;;5115680;28;20196;-79
2022/10/11 13:03:29;;;;;;;4.20;1.77;;;16.40;99.90;;;;;;5114450;28;20200;-83
2022/10/11 13:05:56;;;;;;;7.83;2.10;;;16.20;99.90;;;;;;5114120;28;20203;-83
2022/10/11 13:08:32;;;;;;;10.20;2.42;;;16.20;99.90;;;;;;5116577;28;20515;-86